sensor_id;sensor_type;location;lat;lon;timestamp;pressure;altitude;pressure_sealevel;temperature;humidity
17373;BME280;8803;48.116;11.590;2023-11-22T00:01:24;95679.94;;;10.53;100.00
17373;BME280;8803;48.116;11.590;2023-11-22T00:03:29;95677.13;;;10.55;100.00
17373;BME280;8803;48.116;11.590;2023-11-22T00:05:33;95677.13;;;10.55;100.00
17373;BME280;8803;48.116;11.590;2023-11-22T00:07:38;95675.80;;;10.55;100.00
17373;BME280;8803;48.116;11.590;2023-11-22T00:09:43;95673.13;;;10.55;100.00
17373;BME280;8803;48.116;11.590;2023-11-22T00:14:02;95668.66;;;10.55;100.00
17373;BME280;8803;48.116;11.590;2023-11-22T00:16:07;95681.89;;;10.51;100.00
17373;BME280;8803;48.116;11.590;2023-11-22T00:18:13;95687.22;;;10.51;100.00
17373;BME280;8803;48.116;11.590;2023-11-22T00:20:18;95684.55;;;10.51;100.00
17373;BME280;8803;48.116;11.590;2023-11-22T00:22:23;95680.48;;;10.47;100.00
17373;BME280;8803;48.116;11.590;2023-11-22T00:24:30;95682.52;;;10.49;100.00
17373;BME280;8803;48.116;11.590;2023-11-22T00:26:34;95683.62;;;10.47;100.00
17373;BME280;8803;48.116;11.590;2023-11-22T00:30:51;95686.51;;;10.49;100.00
17373;BME280;8803;48.116;11.590;2023-11-22T00:32:56;95685.58;;;10.45;100.00
17373;BME280;8803;48.116;11.590;2023-11-22T00:35:01;95685.13;;;10.40;100.00
17373;BME280;8803;48.116;11.590;2023-11-22T00:37:05;95686.94;;;10.39;100.00
17373;BME280;8803;48.116;11.590;2023-11-22T00:39:10;95689.49;;;10.41;100.00
17373;BME280;8803;48.116;11.590;2023-11-22T00:41:16;95682.22;;;10.43;100.00
17373;BME280;8803;48.116;11.590;2023-11-22T00:43:20;95687.45;;;10.39;100.00
17373;BME280;8803;48.116;11.590;2023-11-22T00:45:25;95685.61;;;10.39;100.00
17373;BME280;8803;48.116;11.590;2023-11-22T00:49:42;95694.73;;;10.37;100.00
17373;BME280;8803;48.116;11.590;2023-11-22T00:53:59;95695.28;;;10.30;100.00
17373;BME280;8803;48.116;11.590;2023-11-22T00:56:06;95697.11;;;10.24;100.00
17373;BME280;8803;48.116;11.590;2023-11-22T00:58:10;95694.97;;;10.24;100.00
17373;BME280;8803;48.116;11.590;2023-11-22T01:00:17;95697.11;;;10.24;100.00
17373;BME280;8803;48.116;11.590;2023-11-22T01:02:21;95704.28;;;10.24;100.00
17373;BME280;8803;48.116;11.590;2023-11-22T01:04:25;95704.77;;;10.23;100.00
17373;BME280;8803;48.116;11.590;2023-11-22T01:06:30;95703.77;;;10.24;100.00
17373;BME280;8803;48.116;11.590;2023-11-22T01:08:35;95702.95;;;10.24;100.00
17373;BME280;8803;48.116;11.590;2023-11-22T01:10:40;95704.77;;;10.23;100.00
17373;BME280;8803;48.116;11.590;2023-11-22T01:12:44;95704.39;;;10.22;100.00
17373;BME280;8803;48.116;11.590;2023-11-22T01:14:48;95707.91;;;10.23;100.00
17373;BME280;8803;48.116;11.590;2023-11-22T01:16:52;95710.93;;;10.24;100.00
17373;BME280;8803;48.116;11.590;2023-11-22T01:18:58;95707.76;;;10.24;100.00
17373;BME280;8803;48.116;11.590;2023-11-22T01:21:04;95709.37;;;10.21;100.00
17373;BME280;8803;48.116;11.590;2023-11-22T01:23:08;95711.55;;;10.22;100.00
17373;BME280;8803;48.116;11.590;2023-11-22T01:25:12;95707.56;;;10.22;100.00
17373;BME280;8803;48.116;11.590;2023-11-22T01:29:28;95712.83;;;10.27;100.00
17373;BME280;8803;48.116;11.590;2023-11-22T01:31:33;95716.03;;;10.21;100.00
17373;BME280;8803;48.116;11.590;2023-11-22T01:35:50;95712.52;;;10.21;100.00
17373;BME280;8803;48.116;11.590;2023-11-22T01:37:55;95718.09;;;10.18;100.00
17373;BME280;8803;48.116;11.590;2023-11-22T01:40:00;95717.13;;;10.19;100.00
17373;BME280;8803;48.116;11.590;2023-11-22T01:42:07;95718.83;;;10.20;100.00
17373;BME280;8803;48.116;11.590;2023-11-22T01:44:12;95724.48;;;10.21;100.00
17373;BME280;8803;48.116;11.590;2023-11-22T01:48:34;95731.70;;;10.24;100.00
17373;BME280;8803;48.116;11.590;2023-11-22T01:50:39;95731.63;;;10.20;100.00
17373;BME280;8803;48.116;11.590;2023-11-22T01:52:45;95736.46;;;10.21;100.00
17373;BME280;8803;48.116;11.590;2023-11-22T01:54:49;95734.80;;;10.20;100.00
17373;BME280;8803;48.116;11.590;2023-11-22T01:59:07;95735.44;;;10.27;100.00
17373;BME280;8803;48.116;11.590;2023-11-22T02:01:13;95733.17;;;10.23;100.00
17373;BME280;8803;48.116;11.590;2023-11-22T02:03:18;95732.55;;;10.25;100.00
17373;BME280;8803;48.116;11.590;2023-11-22T02:05:23;95726.67;;;10.21;100.00
17373;BME280;8803;48.116;11.590;2023-11-22T02:07:28;95728.84;;;10.22;100.00
17373;BME280;8803;48.116;11.590;2023-11-22T02:09:34;95732.22;;;10.24;100.00
17373;BME280;8803;48.116;11.590;2023-11-22T02:11:39;95746.00;;;10.23;100.00
17373;BME280;8803;48.116;11.590;2023-11-22T02:13:44;95744.61;;;10.14;100.00
17373;BME280;8803;48.116;11.590;2023-11-22T02:15:49;95758.38;;;9.93;100.00
17373;BME280;8803;48.116;11.590;2023-11-22T02:17:53;95764.66;;;9.77;99.24
17373;BME280;8803;48.116;11.590;2023-11-22T02:19:58;95768.50;;;9.78;100.00
17373;BME280;8803;48.116;11.590;2023-11-22T02:22:03;95758.91;;;9.66;99.78
17373;BME280;8803;48.116;11.590;2023-11-22T02:24:09;95772.53;;;9.52;99.14
17373;BME280;8803;48.116;11.590;2023-11-22T02:26:14;95772.94;;;9.42;100.00
17373;BME280;8803;48.116;11.590;2023-11-22T02:28:21;95774.78;;;9.30;100.00
17373;BME280;8803;48.116;11.590;2023-11-22T02:30:25;95785.94;;;9.13;99.87
17373;BME280;8803;48.116;11.590;2023-11-22T02:32:30;95788.05;;;9.04;98.30
17373;BME280;8803;48.116;11.590;2023-11-22T02:34:34;95789.84;;;9.04;100.00
17373;BME280;8803;48.116;11.590;2023-11-22T02:36:39;95797.34;;;9.04;100.00
17373;BME280;8803;48.116;11.590;2023-11-22T02:40:56;95784.69;;;8.91;100.00
17373;BME280;8803;48.116;11.590;2023-11-22T02:43:01;95786.50;;;8.80;100.00
17373;BME280;8803;48.116;11.590;2023-11-22T02:47:23;95796.42;;;8.72;100.00
17373;BME280;8803;48.116;11.590;2023-11-22T02:49:27;95796.67;;;8.63;100.00
17373;BME280;8803;48.116;11.590;2023-11-22T02:53:45;95797.63;;;8.57;100.00
17373;BME280;8803;48.116;11.590;2023-11-22T02:55:50;95802.95;;;8.51;99.85
17373;BME280;8803;48.116;11.590;2023-11-22T02:57:57;95801.00;;;8.48;99.20
17373;BME280;8803;48.116;11.590;2023-11-22T03:01:58;95796.69;;;8.58;100.00
17373;BME280;8803;48.116;11.590;2023-11-22T03:04:05;95802.94;;;8.46;100.00
17373;BME280;8803;48.116;11.590;2023-11-22T03:08:22;95810.67;;;8.49;100.00
17373;BME280;8803;48.116;11.590;2023-11-22T03:10:27;95821.82;;;8.25;97.23
17373;BME280;8803;48.116;11.590;2023-11-22T03:14:45;95815.95;;;8.27;98.59
17373;BME280;8803;48.116;11.590;2023-11-22T03:16:50;95817.13;;;8.17;98.20
17373;BME280;8803;48.116;11.590;2023-11-22T03:18:55;95825.30;;;8.09;98.41
17373;BME280;8803;48.116;11.590;2023-11-22T03:21:01;95823.22;;;7.95;95.80
17373;BME280;8803;48.116;11.590;2023-11-22T03:23:06;95831.30;;;7.94;95.78
17373;BME280;8803;48.116;11.590;2023-11-22T03:25:13;95827.96;;;8.03;98.44
17373;BME280;8803;48.116;11.590;2023-11-22T03:27:18;95829.63;;;7.98;97.61
17373;BME280;8803;48.116;11.590;2023-11-22T03:29:24;95841.14;;;7.81;93.62
17373;BME280;8803;48.116;11.590;2023-11-22T03:31:28;95850.53;;;7.74;92.44
17373;BME280;8803;48.116;11.590;2023-11-22T03:33:33;95847.97;;;7.67;93.25
17373;BME280;8803;48.116;11.590;2023-11-22T03:35:37;95847.71;;;7.64;93.31
17373;BME280;8803;48.116;11.590;2023-11-22T03:37:42;95853.88;;;7.70;96.81
17373;BME280;8803;48.116;11.590;2023-11-22T03:39:46;95855.45;;;7.73;98.87
17373;BME280;8803;48.116;11.590;2023-11-22T03:41:51;95861.27;;;7.78;100.00
17373;BME280;8803;48.116;11.590;2023-11-22T03:46:09;95862.94;;;7.79;100.00
17373;BME280;8803;48.116;11.590;2023-11-22T03:48:13;95870.97;;;7.72;98.97
17373;BME280;8803;48.116;11.590;2023-11-22T03:50:18;95873.41;;;7.75;99.58
17373;BME280;8803;48.116;11.590;2023-11-22T03:52:22;95876.66;;;7.73;99.98
17373;BME280;8803;48.116;11.590;2023-11-22T03:54:27;95879.30;;;7.73;100.00
17373;BME280;8803;48.116;11.590;2023-11-22T03:56:31;95881.10;;;7.72;100.00
17373;BME280;8803;48.116;11.590;2023-11-22T04:00:48;95880.50;;;7.74;100.00
17373;BME280;8803;48.116;11.590;2023-11-22T04:02:54;95890.76;;;7.73;100.00
17373;BME280;8803;48.116;11.590;2023-11-22T04:05:00;95886.66;;;7.75;100.00
17373;BME280;8803;48.116;11.590;2023-11-22T04:07:04;95903.41;;;7.75;100.00
17373;BME280;8803;48.116;11.590;2023-11-22T04:09:09;95902.21;;;7.74;100.00
17373;BME280;8803;48.116;11.590;2023-11-22T04:11:15;95906.91;;;7.76;100.00
17373;BME280;8803;48.116;11.590;2023-11-22T04:13:20;95911.24;;;7.77;100.00
17373;BME280;8803;48.116;11.590;2023-11-22T04:15:27;95920.39;;;7.78;100.00
17373;BME280;8803;48.116;11.590;2023-11-22T04:17:31;95916.80;;;7.79;100.00
17373;BME280;8803;48.116;11.590;2023-11-22T04:19:35;95913.08;;;7.82;100.00
17373;BME280;8803;48.116;11.590;2023-11-22T04:21:40;95910.05;;;7.81;100.00
17373;BME280;8803;48.116;11.590;2023-11-22T04:23:44;95902.36;;;7.83;100.00
17373;BME280;8803;48.116;11.590;2023-11-22T04:25:48;95905.73;;;7.85;100.00
17373;BME280;8803;48.116;11.590;2023-11-22T04:30:10;95908.91;;;7.90;100.00
17373;BME280;8803;48.116;11.590;2023-11-22T04:32:16;95917.19;;;7.86;100.00
17373;BME280;8803;48.116;11.590;2023-11-22T04:34:20;95920.09;;;7.88;100.00
17373;BME280;8803;48.116;11.590;2023-11-22T04:36:25;95921.30;;;7.90;100.00
17373;BME280;8803;48.116;11.590;2023-11-22T04:38:29;95925.63;;;7.91;100.00
17373;BME280;8803;48.116;11.590;2023-11-22T04:40:33;95926.95;;;7.91;100.00
17373;BME280;8803;48.116;11.590;2023-11-22T04:42:38;95923.70;;;7.93;100.00
17373;BME280;8803;48.116;11.590;2023-11-22T04:44:42;95932.89;;;7.94;98.59
17373;BME280;8803;48.116;11.590;2023-11-22T04:46:46;95932.76;;;7.90;99.48
17373;BME280;8803;48.116;11.590;2023-11-22T04:48:51;95942.51;;;7.90;100.00
17373;BME280;8803;48.116;11.590;2023-11-22T04:50:55;95943.79;;;7.84;99.66
17373;BME280;8803;48.116;11.590;2023-11-22T04:55:13;95945.42;;;7.92;99.05
17373;BME280;8803;48.116;11.590;2023-11-22T04:57:17;95944.30;;;7.89;98.67
17373;BME280;8803;48.116;11.590;2023-11-22T05:01:33;95955.18;;;7.97;98.83
17373;BME280;8803;48.116;11.590;2023-11-22T05:03:38;95965.52;;;7.89;96.01
17373;BME280;8803;48.116;11.590;2023-11-22T05:05:42;95971.02;;;7.81;95.42
17373;BME280;8803;48.116;11.590;2023-11-22T05:09:59;95976.92;;;7.84;96.53
17373;BME280;8803;48.116;11.590;2023-11-22T05:12:04;95969.25;;;7.63;93.67
17373;BME280;8803;48.116;11.590;2023-11-22T05:14:08;95964.82;;;7.69;95.08
17373;BME280;8803;48.116;11.590;2023-11-22T05:16:12;95976.61;;;7.65;94.61
17373;BME280;8803;48.116;11.590;2023-11-22T05:18:17;95968.66;;;7.65;93.71
17373;BME280;8803;48.116;11.590;2023-11-22T05:22:40;95979.73;;;7.65;95.24
17373;BME280;8803;48.116;11.590;2023-11-22T05:26:58;95975.04;;;7.68;96.14
17373;BME280;8803;48.116;11.590;2023-11-22T05:29:02;95985.02;;;7.65;97.15
17373;BME280;8803;48.116;11.590;2023-11-22T05:33:20;95987.20;;;7.65;97.12
17373;BME280;8803;48.116;11.590;2023-11-22T05:35:26;95996.34;;;7.61;96.85
17373;BME280;8803;48.116;11.590;2023-11-22T05:39:43;95997.80;;;7.65;97.93
17373;BME280;8803;48.116;11.590;2023-11-22T05:41:48;95999.20;;;7.58;97.50
17373;BME280;8803;48.116;11.590;2023-11-22T05:46:06;96011.85;;;7.60;96.47
17373;BME280;8803;48.116;11.590;2023-11-22T05:48:11;96015.20;;;7.57;95.89
17373;BME280;8803;48.116;11.590;2023-11-22T05:50:16;96025.08;;;7.55;95.91
17373;BME280;8803;48.116;11.590;2023-11-22T05:52:20;96033.23;;;7.52;95.81
17373;BME280;8803;48.116;11.590;2023-11-22T05:54:26;96029.13;;;7.53;95.10
17373;BME280;8803;48.116;11.590;2023-11-22T05:56:32;96030.42;;;7.48;95.29
17373;BME280;8803;48.116;11.590;2023-11-22T05:58:37;96035.46;;;7.45;95.47
17373;BME280;8803;48.116;11.590;2023-11-22T06:00:41;96030.72;;;7.38;94.15
17373;BME280;8803;48.116;11.590;2023-11-22T06:02:45;96035.16;;;7.37;93.79
17373;BME280;8803;48.116;11.590;2023-11-22T06:04:50;96038.94;;;7.40;94.12
17373;BME280;8803;48.116;11.590;2023-11-22T06:09:06;96052.33;;;7.44;94.77
17373;BME280;8803;48.116;11.590;2023-11-22T06:11:10;96050.32;;;7.35;94.69
17373;BME280;8803;48.116;11.590;2023-11-22T06:13:16;96052.77;;;7.38;95.73
17373;BME280;8803;48.116;11.590;2023-11-22T06:15:21;96057.52;;;7.33;92.42
17373;BME280;8803;48.116;11.590;2023-11-22T06:17:26;96063.56;;;7.35;93.61
17373;BME280;8803;48.116;11.590;2023-11-22T06:19:32;96058.80;;;7.40;94.97
17373;BME280;8803;48.116;11.590;2023-11-22T06:21:37;96068.22;;;7.44;94.68
17373;BME280;8803;48.116;11.590;2023-11-22T06:23:41;96063.98;;;7.42;90.58
17373;BME280;8803;48.116;11.590;2023-11-22T06:25:46;96062.98;;;7.37;93.07
17373;BME280;8803;48.116;11.590;2023-11-22T06:27:50;96062.70;;;7.35;93.62
17373;BME280;8803;48.116;11.590;2023-11-22T06:32:07;96060.27;;;7.44;96.07
17373;BME280;8803;48.116;11.590;2023-11-22T06:34:12;96067.56;;;7.41;95.03
17373;BME280;8803;48.116;11.590;2023-11-22T06:38:29;96075.31;;;7.44;91.03
17373;BME280;8803;48.116;11.590;2023-11-22T06:40:34;96084.75;;;7.35;92.22
17373;BME280;8803;48.116;11.590;2023-11-22T06:42:38;96081.52;;;7.37;94.13
17373;BME280;8803;48.116;11.590;2023-11-22T06:44:42;96096.63;;;7.42;94.31
17373;BME280;8803;48.116;11.590;2023-11-22T06:46:48;96094.44;;;7.42;94.46
17373;BME280;8803;48.116;11.590;2023-11-22T06:48:53;96095.50;;;7.39;94.57
17373;BME280;8803;48.116;11.590;2023-11-22T06:53:11;96094.02;;;7.35;91.86
17373;BME280;8803;48.116;11.590;2023-11-22T06:55:16;96105.31;;;7.32;93.56
17373;BME280;8803;48.116;11.590;2023-11-22T06:57:20;96112.17;;;7.34;94.70
17373;BME280;8803;48.116;11.590;2023-11-22T06:59:26;96105.47;;;7.36;95.59
17373;BME280;8803;48.116;11.590;2023-11-22T07:01:31;96114.00;;;7.34;94.47
17373;BME280;8803;48.116;11.590;2023-11-22T07:03:35;96117.86;;;7.35;94.78
17373;BME280;8803;48.116;11.590;2023-11-22T07:05:41;96112.88;;;7.31;94.04
17373;BME280;8803;48.116;11.590;2023-11-22T07:09:59;96126.55;;;7.37;95.43
17373;BME280;8803;48.116;11.590;2023-11-22T07:12:04;96129.63;;;7.31;94.48
17373;BME280;8803;48.116;11.590;2023-11-22T07:14:09;96127.87;;;7.37;94.21
17373;BME280;8803;48.116;11.590;2023-11-22T07:16:13;96127.75;;;7.39;93.68
17373;BME280;8803;48.116;11.590;2023-11-22T07:18:18;96129.66;;;7.37;94.41
17373;BME280;8803;48.116;11.590;2023-11-22T07:20:24;96134.48;;;7.37;93.35
17373;BME280;8803;48.116;11.590;2023-11-22T07:22:29;96134.02;;;7.38;93.38
17373;BME280;8803;48.116;11.590;2023-11-22T07:24:34;96136.28;;;7.37;93.53
17373;BME280;8803;48.116;11.590;2023-11-22T07:28:51;96134.91;;;7.44;95.08
17373;BME280;8803;48.116;11.590;2023-11-22T07:30:56;96145.36;;;7.40;94.48
17373;BME280;8803;48.116;11.590;2023-11-22T07:33:01;96152.64;;;7.36;94.95
17373;BME280;8803;48.116;11.590;2023-11-22T07:35:08;96157.74;;;7.39;94.72
17373;BME280;8803;48.116;11.590;2023-11-22T07:39:25;96156.11;;;7.44;94.37
17373;BME280;8803;48.116;11.590;2023-11-22T07:41:30;96176.17;;;7.41;94.40
17373;BME280;8803;48.116;11.590;2023-11-22T07:45:51;96176.83;;;7.44;94.48
17373;BME280;8803;48.116;11.590;2023-11-22T07:47:56;96188.67;;;7.39;94.24
17373;BME280;8803;48.116;11.590;2023-11-22T07:50:02;96196.16;;;7.39;94.67
17373;BME280;8803;48.116;11.590;2023-11-22T07:52:09;96183.88;;;7.38;93.81
17373;BME280;8803;48.116;11.590;2023-11-22T07:54:16;96195.10;;;7.42;93.14
17373;BME280;8803;48.116;11.590;2023-11-22T07:56:21;96203.41;;;7.43;93.53
17373;BME280;8803;48.116;11.590;2023-11-22T08:00:38;96201.58;;;7.50;93.62
17373;BME280;8803;48.116;11.590;2023-11-22T08:02:44;96201.92;;;7.51;93.27
17373;BME280;8803;48.116;11.590;2023-11-22T08:07:03;96195.73;;;7.58;92.31
17373;BME280;8803;48.116;11.590;2023-11-22T08:11:21;96200.56;;;7.58;92.13
17373;BME280;8803;48.116;11.590;2023-11-22T08:13:25;96211.86;;;7.55;91.23
17373;BME280;8803;48.116;11.590;2023-11-22T08:15:29;96221.80;;;7.51;91.49
17373;BME280;8803;48.116;11.590;2023-11-22T08:17:34;96227.95;;;7.52;91.27
17373;BME280;8803;48.116;11.590;2023-11-22T08:21:52;96234.77;;;7.49;91.90
17373;BME280;8803;48.116;11.590;2023-11-22T08:23:56;96235.11;;;7.44;92.42
17373;BME280;8803;48.116;11.590;2023-11-22T08:26:02;96241.16;;;7.46;92.10
17373;BME280;8803;48.116;11.590;2023-11-22T08:28:07;96257.35;;;7.42;91.72
17373;BME280;8803;48.116;11.590;2023-11-22T08:30:13;96251.83;;;7.45;90.49
17373;BME280;8803;48.116;11.590;2023-11-22T08:32:18;96247.97;;;7.43;90.80
17373;BME280;8803;48.116;11.590;2023-11-22T08:34:24;96248.58;;;7.34;90.69
17373;BME280;8803;48.116;11.590;2023-11-22T08:36:28;96247.83;;;7.32;91.39
17373;BME280;8803;48.116;11.590;2023-11-22T08:38:34;96246.78;;;7.35;92.20
17373;BME280;8803;48.116;11.590;2023-11-22T08:42:52;96240.02;;;7.43;92.96
17373;BME280;8803;48.116;11.590;2023-11-22T08:44:56;96245.34;;;7.36;90.42
17373;BME280;8803;48.116;11.590;2023-11-22T08:47:00;96246.51;;;7.32;91.13
17373;BME280;8803;48.116;11.590;2023-11-22T08:49:06;96252.94;;;7.35;92.87
17373;BME280;8803;48.116;11.590;2023-11-22T08:51:10;96257.61;;;7.32;92.43
17373;BME280;8803;48.116;11.590;2023-11-22T08:53:15;96257.61;;;7.32;92.41
17373;BME280;8803;48.116;11.590;2023-11-22T08:57:36;96269.60;;;7.30;92.29
17373;BME280;8803;48.116;11.590;2023-11-22T08:59:41;96271.89;;;7.29;92.47
17373;BME280;8803;48.116;11.590;2023-11-22T09:03:58;96277.36;;;7.33;91.60
17373;BME280;8803;48.116;11.590;2023-11-22T09:06:03;96270.30;;;7.27;91.14
17373;BME280;8803;48.116;11.590;2023-11-22T09:08:09;96283.81;;;7.29;90.90
17373;BME280;8803;48.116;11.590;2023-11-22T09:10:16;96289.47;;;7.30;90.53
17373;BME280;8803;48.116;11.590;2023-11-22T09:12:21;96281.00;;;7.25;90.58
17373;BME280;8803;48.116;11.590;2023-11-22T09:16:39;96288.12;;;7.37;91.61
17373;BME280;8803;48.116;11.590;2023-11-22T09:18:43;96301.66;;;7.33;90.64
17373;BME280;8803;48.116;11.590;2023-11-22T09:20:48;96305.17;;;7.33;90.90
17373;BME280;8803;48.116;11.590;2023-11-22T09:22:53;96298.73;;;7.30;91.41
17373;BME280;8803;48.116;11.590;2023-11-22T09:24:58;96309.55;;;7.27;91.58
17373;BME280;8803;48.116;11.590;2023-11-22T09:27:02;96316.53;;;7.28;91.57
17373;BME280;8803;48.116;11.590;2023-11-22T09:31:21;96312.15;;;7.34;93.01
17373;BME280;8803;48.116;11.590;2023-11-22T09:33:26;96312.55;;;7.28;92.12
17373;BME280;8803;48.116;11.590;2023-11-22T09:35:31;96326.47;;;7.32;91.22
17373;BME280;8803;48.116;11.590;2023-11-22T09:37:36;96327.81;;;7.25;90.70
17373;BME280;8803;48.116;11.590;2023-11-22T09:39:40;96323.38;;;7.25;90.79
17373;BME280;8803;48.116;11.590;2023-11-22T09:41:45;96325.97;;;7.32;91.02
17373;BME280;8803;48.116;11.590;2023-11-22T09:43:51;96333.34;;;7.34;91.28
17373;BME280;8803;48.116;11.590;2023-11-22T09:45:55;96332.57;;;7.39;91.42
17373;BME280;8803;48.116;11.590;2023-11-22T09:48:00;96330.31;;;7.40;91.08
17373;BME280;8803;48.116;11.590;2023-11-22T09:50:10;96326.80;;;7.40;91.40
17373;BME280;8803;48.116;11.590;2023-11-22T09:52:18;96329.81;;;7.41;90.87
17373;BME280;8803;48.116;11.590;2023-11-22T09:56:38;96332.11;;;7.40;90.35
17373;BME280;8803;48.116;11.590;2023-11-22T09:58:44;96340.23;;;7.37;90.45
17373;BME280;8803;48.116;11.590;2023-11-22T10:00:49;96338.91;;;7.37;91.08
17373;BME280;8803;48.116;11.590;2023-11-22T10:02:55;96335.69;;;7.39;91.63
17373;BME280;8803;48.116;11.590;2023-11-22T10:04:59;96334.41;;;7.32;90.83
17373;BME280;8803;48.116;11.590;2023-11-22T10:07:04;96336.61;;;7.25;90.72
17373;BME280;8803;48.116;11.590;2023-11-22T10:09:09;96330.45;;;7.25;89.54
17373;BME280;8803;48.116;11.590;2023-11-22T10:11:16;96325.52;;;7.26;90.10
17373;BME280;8803;48.116;11.590;2023-11-22T10:13:20;96342.67;;;7.20;89.30
17373;BME280;8803;48.116;11.590;2023-11-22T10:17:41;96336.56;;;7.32;91.22
17373;BME280;8803;48.116;11.590;2023-11-22T10:19:47;96332.06;;;7.27;90.27
17373;BME280;8803;48.116;11.590;2023-11-22T10:22:04;96338.11;;;7.29;90.21
17373;BME280;8803;48.116;11.590;2023-11-22T10:24:09;96327.41;;;7.31;90.13
17373;BME280;8803;48.116;11.590;2023-11-22T10:26:14;96336.56;;;7.32;89.66
17373;BME280;8803;48.116;11.590;2023-11-22T10:28:20;96333.75;;;7.28;88.98
17373;BME280;8803;48.116;11.590;2023-11-22T10:30:28;96337.95;;;7.18;88.78
17373;BME280;8803;48.116;11.590;2023-11-22T10:32:33;96338.02;;;7.24;89.27
17373;BME280;8803;48.116;11.590;2023-11-22T10:34:37;96335.17;;;7.27;88.47
17373;BME280;8803;48.116;11.590;2023-11-22T10:36:42;96348.70;;;7.29;88.73
17373;BME280;8803;48.116;11.590;2023-11-22T10:38:47;96343.41;;;7.29;88.67
17373;BME280;8803;48.116;11.590;2023-11-22T10:40:55;96346.41;;;7.30;88.23
17373;BME280;8803;48.116;11.590;2023-11-22T10:43:01;96341.78;;;7.34;88.75
17373;BME280;8803;48.116;11.590;2023-11-22T10:45:09;96343.47;;;7.35;87.70
17373;BME280;8803;48.116;11.590;2023-11-22T10:47:15;96340.06;;;7.33;88.75
17373;BME280;8803;48.116;11.590;2023-11-22T10:49:20;96344.68;;;7.36;87.98
17373;BME280;8803;48.116;11.590;2023-11-22T10:51:29;96352.27;;;7.35;88.73
17373;BME280;8803;48.116;11.590;2023-11-22T10:53:34;96340.34;;;7.35;88.87
17373;BME280;8803;48.116;11.590;2023-11-22T10:55:44;96347.66;;;7.32;87.82
17373;BME280;8803;48.116;11.590;2023-11-22T10:57:50;96348.48;;;7.32;87.81
17373;BME280;8803;48.116;11.590;2023-11-22T10:59:56;96350.95;;;7.35;88.29
17373;BME280;8803;48.116;11.590;2023-11-22T11:02:05;96352.45;;;7.32;85.46
17373;BME280;8803;48.116;11.590;2023-11-22T11:04:15;96357.75;;;7.32;87.06
17373;BME280;8803;48.116;11.590;2023-11-22T11:06:19;96361.07;;;7.36;88.38
17373;BME280;8803;48.116;11.590;2023-11-22T11:08:26;96358.42;;;7.36;87.65
17373;BME280;8803;48.116;11.590;2023-11-22T11:12:47;96374.83;;;7.48;86.28
17373;BME280;8803;48.116;11.590;2023-11-22T11:14:52;96376.34;;;7.45;87.15
17373;BME280;8803;48.116;11.590;2023-11-22T11:16:57;96378.41;;;7.47;87.01
17373;BME280;8803;48.116;11.590;2023-11-22T11:19:03;96384.45;;;7.49;86.82
17373;BME280;8803;48.116;11.590;2023-11-22T11:21:10;96380.77;;;7.51;86.63
17373;BME280;8803;48.116;11.590;2023-11-22T11:25:29;96384.25;;;7.59;86.80
17373;BME280;8803;48.116;11.590;2023-11-22T11:27:35;96391.53;;;7.55;86.59
17373;BME280;8803;48.116;11.590;2023-11-22T11:29:41;96391.45;;;7.57;86.46
17373;BME280;8803;48.116;11.590;2023-11-22T11:31:46;96385.94;;;7.60;85.51
17373;BME280;8803;48.116;11.590;2023-11-22T11:33:56;96370.89;;;7.60;85.75
17373;BME280;8803;48.116;11.590;2023-11-22T11:36:04;96362.08;;;7.60;85.14
17373;BME280;8803;48.116;11.590;2023-11-22T11:38:09;96359.08;;;7.59;85.60
17373;BME280;8803;48.116;11.590;2023-11-22T11:42:45;96359.02;;;7.66;85.50
17373;BME280;8803;48.116;11.590;2023-11-22T11:45:07;96357.75;;;7.59;85.12
17373;BME280;8803;48.116;11.590;2023-11-22T11:47:13;96353.39;;;7.58;83.32
17373;BME280;8803;48.116;11.590;2023-11-22T11:51:30;96348.64;;;7.63;84.37
17373;BME280;8803;48.116;11.590;2023-11-22T11:55:48;96344.00;;;7.59;85.19
17373;BME280;8803;48.116;11.590;2023-11-22T11:57:55;96341.11;;;7.57;85.38
17373;BME280;8803;48.116;11.590;2023-11-22T12:00:00;96343.64;;;7.58;85.04
17373;BME280;8803;48.116;11.590;2023-11-22T12:02:05;96340.53;;;7.59;84.57
17373;BME280;8803;48.116;11.590;2023-11-22T12:04:10;96348.76;;;7.61;84.53
17373;BME280;8803;48.116;11.590;2023-11-22T12:06:16;96350.44;;;7.62;84.74
17373;BME280;8803;48.116;11.590;2023-11-22T12:08:21;96340.23;;;7.63;84.65
17373;BME280;8803;48.116;11.590;2023-11-22T12:10:26;96341.44;;;7.65;84.72
17373;BME280;8803;48.116;11.590;2023-11-22T12:14:45;96358.09;;;7.67;85.69
17373;BME280;8803;48.116;11.590;2023-11-22T12:16:52;96349.58;;;7.62;85.21
17373;BME280;8803;48.116;11.590;2023-11-22T12:18:57;96358.85;;;7.62;85.50
17373;BME280;8803;48.116;11.590;2023-11-22T12:23:15;96370.42;;;7.61;85.16
17373;BME280;8803;48.116;11.590;2023-11-22T12:25:20;96383.00;;;7.57;84.97
17373;BME280;8803;48.116;11.590;2023-11-22T12:27:25;96386.52;;;7.58;85.17
17373;BME280;8803;48.116;11.590;2023-11-22T12:29:29;96383.22;;;7.54;85.75
17373;BME280;8803;48.116;11.590;2023-11-22T12:31:34;96386.23;;;7.55;84.80
17373;BME280;8803;48.116;11.590;2023-11-22T12:33:38;96386.73;;;7.55;84.71
17373;BME280;8803;48.116;11.590;2023-11-22T12:37:59;96387.72;;;7.59;85.57
17373;BME280;8803;48.116;11.590;2023-11-22T12:42:24;96384.89;;;7.62;85.24
17373;BME280;8803;48.116;11.590;2023-11-22T12:44:30;96380.00;;;7.56;85.86
17373;BME280;8803;48.116;11.590;2023-11-22T12:46:49;96374.14;;;7.51;85.76
17373;BME280;8803;48.116;11.590;2023-11-22T12:49:06;96382.02;;;7.53;85.43
17373;BME280;8803;48.116;11.590;2023-11-22T12:53:29;96376.19;;;7.60;84.98
17373;BME280;8803;48.116;11.590;2023-11-22T12:55:35;96381.16;;;7.52;84.48
17373;BME280;8803;48.116;11.590;2023-11-22T12:57:39;96382.02;;;7.53;84.92
17373;BME280;8803;48.116;11.590;2023-11-22T12:59:45;96386.73;;;7.55;83.86
17373;BME280;8803;48.116;11.590;2023-11-22T13:01:50;96389.27;;;7.56;83.72
17373;BME280;8803;48.116;11.590;2023-11-22T13:03:55;96397.69;;;7.56;84.38
17373;BME280;8803;48.116;11.590;2023-11-22T13:05:59;96408.09;;;7.59;83.45
17373;BME280;8803;48.116;11.590;2023-11-22T13:08:05;96400.62;;;7.58;83.11